sensor_id;sensor_type;location;lat;lon;timestamp;temperature;humidity
69335;SHT31;56477;52.742;15.242;2022-11-15T00:00:33;3.28;99.99
69335;SHT31;56477;52.742;15.242;2022-11-15T00:03:04;3.29;99.99
69335;SHT31;56477;52.742;15.242;2022-11-15T00:05:34;3.23;99.99
69335;SHT31;56477;52.742;15.242;2022-11-15T00:08:01;3.21;99.99
69335;SHT31;56477;52.742;15.242;2022-11-15T00:10:27;3.23;99.99
69335;SHT31;56477;52.742;15.242;2022-11-15T00:12:53;3.26;99.99
69335;SHT31;56477;52.742;15.242;2022-11-15T00:15:19;3.25;99.99
69335;SHT31;56477;52.742;15.242;2022-11-15T00:17:48;3.28;99.99
69335;SHT31;56477;52.742;15.242;2022-11-15T00:20:15;3.29;99.99
69335;SHT31;56477;52.742;15.242;2022-11-15T00:22:41;3.28;99.99
69335;SHT31;56477;52.742;15.242;2022-11-15T00:25:07;3.19;99.99
69335;SHT31;56477;52.742;15.242;2022-11-15T00:27:33;3.19;99.99
69335;SHT31;56477;52.742;15.242;2022-11-15T00:29:59;3.21;99.99
69335;SHT31;56477;52.742;15.242;2022-11-15T00:32:25;3.19;99.99
69335;SHT31;56477;52.742;15.242;2022-11-15T00:34:52;3.16;99.99
69335;SHT31;56477;52.742;15.242;2022-11-15T00:37:17;3.11;99.99
69335;SHT31;56477;52.742;15.242;2022-11-15T00:39:44;3.11;99.99
69335;SHT31;56477;52.742;15.242;2022-11-15T00:42:10;3.12;99.99
69335;SHT31;56477;52.742;15.242;2022-11-15T00:44:36;3.12;99.99
69335;SHT31;56477;52.742;15.242;2022-11-15T00:47:02;3.04;99.99
69335;SHT31;56477;52.742;15.242;2022-11-15T00:49:28;3.09;99.99
69335;SHT31;56477;52.742;15.242;2022-11-15T00:51:53;3.09;99.99
69335;SHT31;56477;52.742;15.242;2022-11-15T00:54:20;3.05;99.99
69335;SHT31;56477;52.742;15.242;2022-11-15T00:56:45;3.08;99.99
69335;SHT31;56477;52.742;15.242;2022-11-15T00:59:12;3.05;99.99
69335;SHT31;56477;52.742;15.242;2022-11-15T01:01:38;3.00;99.99
69335;SHT31;56477;52.742;15.242;2022-11-15T01:04:04;3.05;99.99
69335;SHT31;56477;52.742;15.242;2022-11-15T01:06:30;3.05;99.99
69335;SHT31;56477;52.742;15.242;2022-11-15T01:08:56;3.05;99.99
69335;SHT31;56477;52.742;15.242;2022-11-15T01:11:22;3.04;99.99
69335;SHT31;56477;52.742;15.242;2022-11-15T01:13:48;3.05;99.99
69335;SHT31;56477;52.742;15.242;2022-11-15T01:16:16;3.01;99.99
69335;SHT31;56477;52.742;15.242;2022-11-15T01:18:45;2.97;99.99
69335;SHT31;56477;52.742;15.242;2022-11-15T01:21:13;2.90;99.99
69335;SHT31;56477;52.742;15.242;2022-11-15T01:23:40;2.88;99.99
69335;SHT31;56477;52.742;15.242;2022-11-15T01:26:09;2.91;99.99
69335;SHT31;56477;52.742;15.242;2022-11-15T01:28:37;2.95;99.99
69335;SHT31;56477;52.742;15.242;2022-11-15T01:31:06;2.94;99.99
69335;SHT31;56477;52.742;15.242;2022-11-15T01:33:36;2.92;99.99
69335;SHT31;56477;52.742;15.242;2022-11-15T01:36:17;2.94;99.99
69335;SHT31;56477;52.742;15.242;2022-11-15T01:38:44;2.98;99.99
69335;SHT31;56477;52.742;15.242;2022-11-15T01:41:30;3.02;99.99
69335;SHT31;56477;52.742;15.242;2022-11-15T01:46:57;2.91;99.99
69335;SHT31;56477;52.742;15.242;2022-11-15T01:49:26;2.92;99.99
69335;SHT31;56477;52.742;15.242;2022-11-15T01:51:53;2.97;99.99
69335;SHT31;56477;52.742;15.242;2022-11-15T01:54:22;2.91;99.99
69335;SHT31;56477;52.742;15.242;2022-11-15T01:57:24;2.92;99.99
69335;SHT31;56477;52.742;15.242;2022-11-15T01:59:44;2.94;99.99
69335;SHT31;56477;52.742;15.242;2022-11-15T02:02:11;2.95;99.99
69335;SHT31;56477;52.742;15.242;2022-11-15T02:04:42;3.01;99.99
69335;SHT31;56477;52.742;15.242;2022-11-15T02:07:11;2.94;99.99
69335;SHT31;56477;52.742;15.242;2022-11-15T02:09:38;2.98;99.99
69335;SHT31;56477;52.742;15.242;2022-11-15T02:12:06;2.92;99.99
69335;SHT31;56477;52.742;15.242;2022-11-15T02:14:35;2.95;99.99
69335;SHT31;56477;52.742;15.242;2022-11-15T02:25:40;3.00;99.99
69335;SHT31;56477;52.742;15.242;2022-11-15T02:34:17;2.92;99.99
69335;SHT31;56477;52.742;15.242;2022-11-15T02:39:53;2.98;99.99
69335;SHT31;56477;52.742;15.242;2022-11-15T02:42:30;2.94;99.99
69335;SHT31;56477;52.742;15.242;2022-11-15T02:45:30;2.88;99.99
69335;SHT31;56477;52.742;15.242;2022-11-15T02:48:03;2.88;99.99
69335;SHT31;56477;52.742;15.242;2022-11-15T02:50:31;2.90;99.99
69335;SHT31;56477;52.742;15.242;2022-11-15T02:52:58;2.88;99.99
69335;SHT31;56477;52.742;15.242;2022-11-15T03:11:57;3.04;99.99
69335;SHT31;56477;52.742;15.242;2022-11-15T03:14:54;3.07;99.99
69335;SHT31;56477;52.742;15.242;2022-11-15T03:17:32;3.05;99.99
69335;SHT31;56477;52.742;15.242;2022-11-15T03:20:02;3.08;99.99
69335;SHT31;56477;52.742;15.242;2022-11-15T03:22:33;3.07;99.99
69335;SHT31;56477;52.742;15.242;2022-11-15T03:25:03;3.11;99.99
69335;SHT31;56477;52.742;15.242;2022-11-15T03:27:35;3.07;99.99
69335;SHT31;56477;52.742;15.242;2022-11-15T03:30:06;3.09;99.99
69335;SHT31;56477;52.742;15.242;2022-11-15T03:32:39;3.07;99.99
69335;SHT31;56477;52.742;15.242;2022-11-15T03:35:07;3.05;99.99
69335;SHT31;56477;52.742;15.242;2022-11-15T03:40:16;3.00;99.99
69335;SHT31;56477;52.742;15.242;2022-11-15T03:42:47;2.98;99.99
69335;SHT31;56477;52.742;15.242;2022-11-15T03:45:18;2.98;99.99
69335;SHT31;56477;52.742;15.242;2022-11-15T03:47:49;2.98;99.99
69335;SHT31;56477;52.742;15.242;2022-11-15T03:50:19;2.98;99.99
69335;SHT31;56477;52.742;15.242;2022-11-15T03:52:47;3.00;99.99
69335;SHT31;56477;52.742;15.242;2022-11-15T03:55:17;2.97;99.99
69335;SHT31;56477;52.742;15.242;2022-11-15T03:57:44;3.02;99.99
69335;SHT31;56477;52.742;15.242;2022-11-15T04:00:11;3.08;99.99
69335;SHT31;56477;52.742;15.242;2022-11-15T04:02:37;3.09;99.99
69335;SHT31;56477;52.742;15.242;2022-11-15T04:05:03;3.16;99.99
69335;SHT31;56477;52.742;15.242;2022-11-15T04:07:29;3.16;99.99
69335;SHT31;56477;52.742;15.242;2022-11-15T04:09:56;3.16;99.99
69335;SHT31;56477;52.742;15.242;2022-11-15T04:12:38;3.13;99.99
69335;SHT31;56477;52.742;15.242;2022-11-15T04:15:11;3.15;99.99
69335;SHT31;56477;52.742;15.242;2022-11-15T04:17:43;3.11;99.99
69335;SHT31;56477;52.742;15.242;2022-11-15T04:20:19;3.09;99.99
69335;SHT31;56477;52.742;15.242;2022-11-15T04:23:19;3.13;99.99
69335;SHT31;56477;52.742;15.242;2022-11-15T04:26:09;3.19;99.99
69335;SHT31;56477;52.742;15.242;2022-11-15T04:28:37;3.16;99.99
69335;SHT31;56477;52.742;15.242;2022-11-15T04:31:22;3.18;99.99
69335;SHT31;56477;52.742;15.242;2022-11-15T04:33:48;3.21;99.99
69335;SHT31;56477;52.742;15.242;2022-11-15T04:36:14;3.19;99.99
69335;SHT31;56477;52.742;15.242;2022-11-15T04:38:58;3.16;99.99
69335;SHT31;56477;52.742;15.242;2022-11-15T04:41:24;3.12;99.99
69335;SHT31;56477;52.742;15.242;2022-11-15T04:43:50;3.07;99.99
69335;SHT31;56477;52.742;15.242;2022-11-15T04:46:17;3.12;99.99
69335;SHT31;56477;52.742;15.242;2022-11-15T04:48:43;3.12;99.99
69335;SHT31;56477;52.742;15.242;2022-11-15T04:51:09;3.12;99.99
69335;SHT31;56477;52.742;15.242;2022-11-15T04:53:35;3.13;99.99
69335;SHT31;56477;52.742;15.242;2022-11-15T04:56:01;3.13;99.99
69335;SHT31;56477;52.742;15.242;2022-11-15T04:58:27;3.11;99.99
69335;SHT31;56477;52.742;15.242;2022-11-15T05:00:53;3.09;99.99
69335;SHT31;56477;52.742;15.242;2022-11-15T05:03:19;3.11;99.99
69335;SHT31;56477;52.742;15.242;2022-11-15T05:06:04;3.11;99.99
69335;SHT31;56477;52.742;15.242;2022-11-15T05:08:29;3.04;99.99
69335;SHT31;56477;52.742;15.242;2022-11-15T05:10:56;3.07;99.99
69335;SHT31;56477;52.742;15.242;2022-11-15T05:13:21;3.01;99.99
69335;SHT31;56477;52.742;15.242;2022-11-15T05:15:48;2.94;99.99
69335;SHT31;56477;52.742;15.242;2022-11-15T05:18:14;2.98;99.99
69335;SHT31;56477;52.742;15.242;2022-11-15T05:20:40;3.00;99.99
69335;SHT31;56477;52.742;15.242;2022-11-15T05:23:06;3.02;99.99
69335;SHT31;56477;52.742;15.242;2022-11-15T05:25:32;3.08;99.99
69335;SHT31;56477;52.742;15.242;2022-11-15T05:27:58;3.04;99.99
69335;SHT31;56477;52.742;15.242;2022-11-15T05:30:24;3.02;99.99
69335;SHT31;56477;52.742;15.242;2022-11-15T05:32:50;3.02;99.99
69335;SHT31;56477;52.742;15.242;2022-11-15T05:35:30;3.09;99.99
69335;SHT31;56477;52.742;15.242;2022-11-15T05:37:57;3.07;99.99
69335;SHT31;56477;52.742;15.242;2022-11-15T05:40:23;3.08;99.99
69335;SHT31;56477;52.742;15.242;2022-11-15T05:42:49;2.97;99.99
69335;SHT31;56477;52.742;15.242;2022-11-15T05:45:16;2.94;99.99
69335;SHT31;56477;52.742;15.242;2022-11-15T05:47:42;2.95;99.99
69335;SHT31;56477;52.742;15.242;2022-11-15T05:50:12;2.94;99.99
69335;SHT31;56477;52.742;15.242;2022-11-15T05:52:39;2.92;99.99
69335;SHT31;56477;52.742;15.242;2022-11-15T05:55:07;2.88;99.99
69335;SHT31;56477;52.742;15.242;2022-11-15T05:57:34;2.90;99.99
69335;SHT31;56477;52.742;15.242;2022-11-15T06:00:01;2.90;99.99
69335;SHT31;56477;52.742;15.242;2022-11-15T06:02:27;2.87;99.99
69335;SHT31;56477;52.742;15.242;2022-11-15T06:04:53;2.91;99.99
69335;SHT31;56477;52.742;15.242;2022-11-15T06:07:19;2.95;99.99
69335;SHT31;56477;52.742;15.242;2022-11-15T06:09:45;2.92;99.99
69335;SHT31;56477;52.742;15.242;2022-11-15T06:12:11;2.91;99.99
69335;SHT31;56477;52.742;15.242;2022-11-15T06:14:37;2.90;99.99
69335;SHT31;56477;52.742;15.242;2022-11-15T06:17:03;2.90;99.99
69335;SHT31;56477;52.742;15.242;2022-11-15T06:19:29;2.92;99.99
69335;SHT31;56477;52.742;15.242;2022-11-15T06:21:59;2.94;99.99
69335;SHT31;56477;52.742;15.242;2022-11-15T06:24:25;2.90;99.99
69335;SHT31;56477;52.742;15.242;2022-11-15T06:26:51;2.91;99.99
69335;SHT31;56477;52.742;15.242;2022-11-15T06:29:17;2.91;99.99
69335;SHT31;56477;52.742;15.242;2022-11-15T06:31:43;2.88;99.99
69335;SHT31;56477;52.742;15.242;2022-11-15T06:34:09;2.88;99.99
69335;SHT31;56477;52.742;15.242;2022-11-15T06:36:35;2.90;99.99
69335;SHT31;56477;52.742;15.242;2022-11-15T06:39:03;2.88;99.99
69335;SHT31;56477;52.742;15.242;2022-11-15T06:41:29;2.87;99.99
69335;SHT31;56477;52.742;15.242;2022-11-15T06:43:57;2.90;99.99
69335;SHT31;56477;52.742;15.242;2022-11-15T06:46:22;2.91;99.99
69335;SHT31;56477;52.742;15.242;2022-11-15T06:48:51;2.90;99.99
69335;SHT31;56477;52.742;15.242;2022-11-15T06:51:17;2.92;99.99
69335;SHT31;56477;52.742;15.242;2022-11-15T06:53:43;2.95;99.99
69335;SHT31;56477;52.742;15.242;2022-11-15T06:56:09;2.91;99.99
69335;SHT31;56477;52.742;15.242;2022-11-15T06:58:36;2.92;99.99
69335;SHT31;56477;52.742;15.242;2022-11-15T07:01:10;2.87;99.99
69335;SHT31;56477;52.742;15.242;2022-11-15T07:03:39;2.87;99.99
69335;SHT31;56477;52.742;15.242;2022-11-15T07:06:05;2.84;99.99
69335;SHT31;56477;52.742;15.242;2022-11-15T07:08:32;2.87;99.99
69335;SHT31;56477;52.742;15.242;2022-11-15T07:10:59;2.92;99.99
69335;SHT31;56477;52.742;15.242;2022-11-15T07:13:27;3.02;99.99
69335;SHT31;56477;52.742;15.242;2022-11-15T07:15:53;3.08;99.99
69335;SHT31;56477;52.742;15.242;2022-11-15T07:18:19;3.04;99.99
69335;SHT31;56477;52.742;15.242;2022-11-15T07:20:45;3.05;99.99
69335;SHT31;56477;52.742;15.242;2022-11-15T07:23:12;3.02;99.99
69335;SHT31;56477;52.742;15.242;2022-11-15T07:25:38;3.00;99.99
69335;SHT31;56477;52.742;15.242;2022-11-15T07:28:04;3.00;99.99
69335;SHT31;56477;52.742;15.242;2022-11-15T07:30:30;3.08;99.99
69335;SHT31;56477;52.742;15.242;2022-11-15T07:32:57;3.13;99.99
69335;SHT31;56477;52.742;15.242;2022-11-15T07:35:24;3.18;99.99
69335;SHT31;56477;52.742;15.242;2022-11-15T07:40:20;3.11;99.99
69335;SHT31;56477;52.742;15.242;2022-11-15T07:42:46;3.12;99.99
69335;SHT31;56477;52.742;15.242;2022-11-15T07:45:19;3.04;99.99
69335;SHT31;56477;52.742;15.242;2022-11-15T07:47:47;2.94;99.99
69335;SHT31;56477;52.742;15.242;2022-11-15T07:50:13;3.05;99.99
69335;SHT31;56477;52.742;15.242;2022-11-15T07:52:39;3.09;99.99
69335;SHT31;56477;52.742;15.242;2022-11-15T07:55:05;3.16;99.99
69335;SHT31;56477;52.742;15.242;2022-11-15T07:57:31;3.28;99.99
69335;SHT31;56477;52.742;15.242;2022-11-15T07:59:57;3.33;99.99
69335;SHT31;56477;52.742;15.242;2022-11-15T08:02:23;3.33;99.99
69335;SHT31;56477;52.742;15.242;2022-11-15T08:04:49;3.36;99.99
69335;SHT31;56477;52.742;15.242;2022-11-15T08:07:15;3.31;99.99
69335;SHT31;56477;52.742;15.242;2022-11-15T08:09:41;3.40;99.99
69335;SHT31;56477;52.742;15.242;2022-11-15T08:12:07;3.44;99.99
69335;SHT31;56477;52.742;15.242;2022-11-15T08:14:34;3.40;99.99
69335;SHT31;56477;52.742;15.242;2022-11-15T08:17:01;3.50;99.99
69335;SHT31;56477;52.742;15.242;2022-11-15T08:19:27;3.56;99.99
69335;SHT31;56477;52.742;15.242;2022-11-15T08:21:53;3.48;99.99
69335;SHT31;56477;52.742;15.242;2022-11-15T08:24:19;3.55;99.99
69335;SHT31;56477;52.742;15.242;2022-11-15T08:26:46;3.56;99.99
69335;SHT31;56477;52.742;15.242;2022-11-15T08:29:12;3.66;99.99
69335;SHT31;56477;52.742;15.242;2022-11-15T08:31:38;3.74;99.99
69335;SHT31;56477;52.742;15.242;2022-11-15T08:34:05;3.73;99.99
69335;SHT31;56477;52.742;15.242;2022-11-15T08:36:31;3.71;99.99
69335;SHT31;56477;52.742;15.242;2022-11-15T08:38:57;3.70;99.99
69335;SHT31;56477;52.742;15.242;2022-11-15T08:41:36;3.79;99.99
69335;SHT31;56477;52.742;15.242;2022-11-15T08:44:02;3.87;99.99
69335;SHT31;56477;52.742;15.242;2022-11-15T08:46:28;4.02;99.99
69335;SHT31;56477;52.742;15.242;2022-11-15T08:48:54;4.02;99.92
69335;SHT31;56477;52.742;15.242;2022-11-15T08:51:20;4.12;99.89
69335;SHT31;56477;52.742;15.242;2022-11-15T08:53:46;4.02;99.01
69335;SHT31;56477;52.742;15.242;2022-11-15T08:56:13;4.12;99.52
69335;SHT31;56477;52.742;15.242;2022-11-15T08:58:40;4.01;98.90
69335;SHT31;56477;52.742;15.242;2022-11-15T09:01:15;3.87;99.08
69335;SHT31;56477;52.742;15.242;2022-11-15T09:03:41;3.81;99.18
69335;SHT31;56477;52.742;15.242;2022-11-15T09:06:07;3.84;99.18
69335;SHT31;56477;52.742;15.242;2022-11-15T09:08:33;3.87;99.39
69335;SHT31;56477;52.742;15.242;2022-11-15T09:11:04;3.89;99.43
69335;SHT31;56477;52.742;15.242;2022-11-15T09:13:30;3.98;99.47
69335;SHT31;56477;52.742;15.242;2022-11-15T09:16:00;4.11;99.78
69335;SHT31;56477;52.742;15.242;2022-11-15T09:18:27;4.10;99.26
69335;SHT31;56477;52.742;15.242;2022-11-15T09:20:57;4.20;99.42
69335;SHT31;56477;52.742;15.242;2022-11-15T09:23:24;4.18;99.08
69335;SHT31;56477;52.742;15.242;2022-11-15T09:25:51;4.17;98.44
69335;SHT31;56477;52.742;15.242;2022-11-15T09:28:17;4.15;98.64
69335;SHT31;56477;52.742;15.242;2022-11-15T09:30:43;4.21;99.05
69335;SHT31;56477;52.742;15.242;2022-11-15T09:33:11;4.35;98.93
69335;SHT31;56477;52.742;15.242;2022-11-15T09:35:38;4.18;98.27
69335;SHT31;56477;52.742;15.242;2022-11-15T09:38:04;4.27;98.73
69335;SHT31;56477;52.742;15.242;2022-11-15T09:40:32;4.32;98.87
69335;SHT31;56477;52.742;15.242;2022-11-15T09:46:33;4.38;98.84
69335;SHT31;56477;52.742;15.242;2022-11-15T09:51:35;4.45;98.65
69335;SHT31;56477;52.742;15.242;2022-11-15T09:56:40;4.63;98.14
69335;SHT31;56477;52.742;15.242;2022-11-15T09:59:27;4.86;98.89
69335;SHT31;56477;52.742;15.242;2022-11-15T10:05:01;5.11;97.96
69335;SHT31;56477;52.742;15.242;2022-11-15T10:07:30;5.34;98.71
69335;SHT31;56477;52.742;15.242;2022-11-15T10:10:09;5.49;98.73
69335;SHT31;56477;52.742;15.242;2022-11-15T10:12:37;5.45;97.50
69335;SHT31;56477;52.742;15.242;2022-11-15T10:15:06;5.34;97.02
69335;SHT31;56477;52.742;15.242;2022-11-15T10:20:50;5.14;97.33
69335;SHT31;56477;52.742;15.242;2022-11-15T10:23:22;5.11;96.79
69335;SHT31;56477;52.742;15.242;2022-11-15T10:25:51;5.11;97.61
69335;SHT31;56477;52.742;15.242;2022-11-15T10:28:27;5.11;98.05
69335;SHT31;56477;52.742;15.242;2022-11-15T10:30:56;5.28;98.20
69335;SHT31;56477;52.742;15.242;2022-11-15T10:35:49;5.47;98.03
69335;SHT31;56477;52.742;15.242;2022-11-15T10:43:45;5.63;96.87
69335;SHT31;56477;52.742;15.242;2022-11-15T10:46:26;5.73;97.31
69335;SHT31;56477;52.742;15.242;2022-11-15T10:48:52;5.59;96.65
69335;SHT31;56477;52.742;15.242;2022-11-15T10:51:25;5.52;97.08
69335;SHT31;56477;52.742;15.242;2022-11-15T10:53:57;5.58;97.25
69335;SHT31;56477;52.742;15.242;2022-11-15T10:56:25;5.49;97.24
69335;SHT31;56477;52.742;15.242;2022-11-15T10:58:56;5.48;97.18
69335;SHT31;56477;52.742;15.242;2022-11-15T11:01:27;5.45;97.44
69335;SHT31;56477;52.742;15.242;2022-11-15T11:04:07;5.52;97.91
69335;SHT31;56477;52.742;15.242;2022-11-15T11:07:08;5.55;97.75
69335;SHT31;56477;52.742;15.242;2022-11-15T11:10:01;5.60;97.74
69335;SHT31;56477;52.742;15.242;2022-11-15T11:12:32;5.54;96.79
69335;SHT31;56477;52.742;15.242;2022-11-15T11:15:00;5.52;97.31
69335;SHT31;56477;52.742;15.242;2022-11-15T11:37:09;5.56;97.26
69335;SHT31;56477;52.742;15.242;2022-11-15T11:42:42;5.80;97.92
69335;SHT31;56477;52.742;15.242;2022-11-15T11:46:08;5.83;97.43
69335;SHT31;56477;52.742;15.242;2022-11-15T11:48:23;5.72;97.38
69335;SHT31;56477;52.742;15.242;2022-11-15T11:54:33;6.07;97.96
69335;SHT31;56477;52.742;15.242;2022-11-15T11:56:52;6.07;97.36
69335;SHT31;56477;52.742;15.242;2022-11-15T11:59:41;6.10;97.31
69335;SHT31;56477;52.742;15.242;2022-11-15T12:02:28;6.13;96.89
69335;SHT31;56477;52.742;15.242;2022-11-15T12:05:03;6.13;97.04
69335;SHT31;56477;52.742;15.242;2022-11-15T12:07:33;6.06;97.40
69335;SHT31;56477;52.742;15.242;2022-11-15T12:10:20;6.09;97.41
69335;SHT31;56477;52.742;15.242;2022-11-15T12:13:06;6.02;97.20
69335;SHT31;56477;52.742;15.242;2022-11-15T12:15:56;6.05;97.28
69335;SHT31;56477;52.742;15.242;2022-11-15T12:18:23;5.96;97.57
69335;SHT31;56477;52.742;15.242;2022-11-15T12:20:53;6.09;98.04
69335;SHT31;56477;52.742;15.242;2022-11-15T12:23:28;6.23;97.81
69335;SHT31;56477;52.742;15.242;2022-11-15T12:26:05;6.31;98.01
69335;SHT31;56477;52.742;15.242;2022-11-15T12:28:40;6.40;98.05
69335;SHT31;56477;52.742;15.242;2022-11-15T12:31:18;6.41;97.50
69335;SHT31;56477;52.742;15.242;2022-11-15T12:33:47;6.38;97.38
69335;SHT31;56477;52.742;15.242;2022-11-15T12:42:23;6.28;97.41
69335;SHT31;56477;52.742;15.242;2022-11-15T13:04:50;6.07;97.76
69335;SHT31;56477;52.742;15.242;2022-11-15T13:13:04;5.97;97.81
69335;SHT31;56477;52.742;15.242;2022-11-15T13:20:52;5.93;97.92
69335;SHT31;56477;52.742;15.242;2022-11-15T13:23:18;5.86;98.20
69335;SHT31;56477;52.742;15.242;2022-11-15T13:28:52;5.82;98.72
69335;SHT31;56477;52.742;15.242;2022-11-15T13:31:42;5.90;98.72
69335;SHT31;56477;52.742;15.242;2022-11-15T13:36:43;5.90;98.41
69335;SHT31;56477;52.742;15.242;2022-11-15T13:39:25;5.90;98.73
69335;SHT31;56477;52.742;15.242;2022-11-15T13:41:52;5.92;98.55
69335;SHT31;56477;52.742;15.242;2022-11-15T13:44:27;5.95;98.84
69335;SHT31;56477;52.742;15.242;2022-11-15T13:47:15;5.96;98.68
69335;SHT31;56477;52.742;15.242;2022-11-15T13:49:41;5.89;98.29
69335;SHT31;56477;52.742;15.242;2022-11-15T13:52:11;5.82;98.53
69335;SHT31;56477;52.742;15.242;2022-11-15T13:54:43;5.86;98.78
69335;SHT31;56477;52.742;15.242;2022-11-15T13:57:16;5.83;98.71
69335;SHT31;56477;52.742;15.242;2022-11-15T13:59:50;5.87;98.85
69335;SHT31;56477;52.742;15.242;2022-11-15T14:02:19;5.93;98.99
69335;SHT31;56477;52.742;15.242;2022-11-15T14:04:50;5.93;98.76
69335;SHT31;56477;52.742;15.242;2022-11-15T14:07:19;5.96;98.77
69335;SHT31;56477;52.742;15.242;2022-11-15T14:09:46;5.97;98.93
69335;SHT31;56477;52.742;15.242;2022-11-15T14:12:28;5.95;98.91
69335;SHT31;56477;52.742;15.242;2022-11-15T14:14:56;5.93;98.87
69335;SHT31;56477;52.742;15.242;2022-11-15T14:17:35;5.96;98.85
69335;SHT31;56477;52.742;15.242;2022-11-15T14:20:19;5.92;98.87
69335;SHT31;56477;52.742;15.242;2022-11-15T14:22:57;5.92;98.88
69335;SHT31;56477;52.742;15.242;2022-11-15T14:25:24;5.89;98.79
69335;SHT31;56477;52.742;15.242;2022-11-15T14:30:35;5.59;98.67
69335;SHT31;56477;52.742;15.242;2022-11-15T14:33:01;5.54;98.94
69335;SHT31;56477;52.742;15.242;2022-11-15T14:35:28;5.51;99.20
69335;SHT31;56477;52.742;15.242;2022-11-15T14:37:54;5.48;99.56
69335;SHT31;56477;52.742;15.242;2022-11-15T14:40:21;5.51;99.41
69335;SHT31;56477;52.742;15.242;2022-11-15T14:42:48;5.45;99.28
69335;SHT31;56477;52.742;15.242;2022-11-15T14:45:17;5.42;99.33
69335;SHT31;56477;52.742;15.242;2022-11-15T14:47:44;5.34;99.48
69335;SHT31;56477;52.742;15.242;2022-11-15T14:50:18;5.26;99.38
69335;SHT31;56477;52.742;15.242;2022-11-15T14:52:45;5.17;99.70
69335;SHT31;56477;52.742;15.242;2022-11-15T14:55:25;5.11;99.99
69335;SHT31;56477;52.742;15.242;2022-11-15T14:57:53;5.13;99.99
69335;SHT31;56477;52.742;15.242;2022-11-15T15:00:19;5.16;99.99
69335;SHT31;56477;52.742;15.242;2022-11-15T15:02:46;5.16;99.99
69335;SHT31;56477;52.742;15.242;2022-11-15T15:05:21;5.17;99.99
69335;SHT31;56477;52.742;15.242;2022-11-15T15:07:50;5.17;99.99
69335;SHT31;56477;52.742;15.242;2022-11-15T15:10:18;5.20;99.99
69335;SHT31;56477;52.742;15.242;2022-11-15T15:12:44;5.20;99.99
69335;SHT31;56477;52.742;15.242;2022-11-15T15:15:24;5.23;99.99
69335;SHT31;56477;52.742;15.242;2022-11-15T15:17:50;5.11;99.99
69335;SHT31;56477;52.742;15.242;2022-11-15T15:20:17;5.13;99.99
69335;SHT31;56477;52.742;15.242;2022-11-15T15:22:44;5.13;99.99
69335;SHT31;56477;52.742;15.242;2022-11-15T15:25:29;5.07;99.99
69335;SHT31;56477;52.742;15.242;2022-11-15T15:27:55;5.11;99.99
69335;SHT31;56477;52.742;15.242;2022-11-15T15:30:22;5.10;99.99
69335;SHT31;56477;52.742;15.242;2022-11-15T15:32:49;5.07;99.99
69335;SHT31;56477;52.742;15.242;2022-11-15T15:35:16;5.08;99.99
69335;SHT31;56477;52.742;15.242;2022-11-15T15:37:44;5.07;99.99
69335;SHT31;56477;52.742;15.242;2022-11-15T15:40:14;5.06;99.99
69335;SHT31;56477;52.742;15.242;2022-11-15T15:42:41;5.07;99.99
69335;SHT31;56477;52.742;15.242;2022-11-15T15:45:09;5.06;99.99
69335;SHT31;56477;52.742;15.242;2022-11-15T15:47:35;5.03;99.99
69335;SHT31;56477;52.742;15.242;2022-11-15T15:50:01;5.06;99.99
69335;SHT31;56477;52.742;15.242;2022-11-15T15:52:27;5.07;99.99
69335;SHT31;56477;52.742;15.242;2022-11-15T15:54:54;5.04;99.99
69335;SHT31;56477;52.742;15.242;2022-11-15T15:57:19;5.07;99.99
69335;SHT31;56477;52.742;15.242;2022-11-15T15:59:46;5.11;99.99
69335;SHT31;56477;52.742;15.242;2022-11-15T16:02:12;5.08;99.99
69335;SHT31;56477;52.742;15.242;2022-11-15T16:04:39;5.13;99.99
69335;SHT31;56477;52.742;15.242;2022-11-15T16:07:05;5.11;99.99
69335;SHT31;56477;52.742;15.242;2022-11-15T16:09:31;5.03;99.99
69335;SHT31;56477;52.742;15.242;2022-11-15T16:12:15;4.96;99.99
69335;SHT31;56477;52.742;15.242;2022-11-15T16:14:42;4.99;99.99
69335;SHT31;56477;52.742;15.242;2022-11-15T16:17:18;4.89;99.99
69335;SHT31;56477;52.742;15.242;2022-11-15T16:19:44;4.93;99.99
69335;SHT31;56477;52.742;15.242;2022-11-15T16:22:10;4.94;99.99
69335;SHT31;56477;52.742;15.242;2022-11-15T16:24:37;4.99;99.99
69335;SHT31;56477;52.742;15.242;2022-11-15T16:27:03;4.99;99.99
69335;SHT31;56477;52.742;15.242;2022-11-15T16:29:33;5.03;99.99
69335;SHT31;56477;52.742;15.242;2022-11-15T16:31:58;5.03;99.99
69335;SHT31;56477;52.742;15.242;2022-11-15T16:34:25;5.01;99.99
69335;SHT31;56477;52.742;15.242;2022-11-15T16:36:51;4.97;99.99
69335;SHT31;56477;52.742;15.242;2022-11-15T16:39:18;4.97;99.99
69335;SHT31;56477;52.742;15.242;2022-11-15T16:41:45;4.97;99.99
69335;SHT31;56477;52.742;15.242;2022-11-15T16:44:13;4.93;99.99
69335;SHT31;56477;52.742;15.242;2022-11-15T16:46:41;4.97;99.99
69335;SHT31;56477;52.742;15.242;2022-11-15T16:49:14;4.90;99.99
69335;SHT31;56477;52.742;15.242;2022-11-15T16:51:41;4.80;99.99
69335;SHT31;56477;52.742;15.242;2022-11-15T16:54:07;4.83;99.99
69335;SHT31;56477;52.742;15.242;2022-11-15T16:56:33;4.81;99.99
69335;SHT31;56477;52.742;15.242;2022-11-15T16:59:00;4.83;99.99
69335;SHT31;56477;52.742;15.242;2022-11-15T17:01:30;4.83;99.99
69335;SHT31;56477;52.742;15.242;2022-11-15T17:03:56;4.80;99.99
69335;SHT31;56477;52.742;15.242;2022-11-15T17:06:24;4.83;99.99
69335;SHT31;56477;52.742;15.242;2022-11-15T17:08:51;4.83;99.99
69335;SHT31;56477;52.742;15.242;2022-11-15T17:11:21;4.84;99.99
69335;SHT31;56477;52.742;15.242;2022-11-15T17:13:47;4.83;99.99
69335;SHT31;56477;52.742;15.242;2022-11-15T17:16:16;4.80;99.99
69335;SHT31;56477;52.742;15.242;2022-11-15T17:18:43;4.84;99.99
69335;SHT31;56477;52.742;15.242;2022-11-15T17:21:14;4.86;99.99
69335;SHT31;56477;52.742;15.242;2022-11-15T17:23:41;4.89;99.99
69335;SHT31;56477;52.742;15.242;2022-11-15T17:26:11;4.91;99.99
69335;SHT31;56477;52.742;15.242;2022-11-15T17:28:38;4.94;99.99
69335;SHT31;56477;52.742;15.242;2022-11-15T17:31:09;4.87;99.99
69335;SHT31;56477;52.742;15.242;2022-11-15T17:33:36;4.87;99.99
69335;SHT31;56477;52.742;15.242;2022-11-15T17:36:04;4.89;99.99
69335;SHT31;56477;52.742;15.242;2022-11-15T17:38:31;4.87;99.99
69335;SHT31;56477;52.742;15.242;2022-11-15T17:41:01;4.84;99.99
69335;SHT31;56477;52.742;15.242;2022-11-15T17:43:29;4.84;99.99
69335;SHT31;56477;52.742;15.242;2022-11-15T17:45:55;4.81;99.99
69335;SHT31;56477;52.742;15.242;2022-11-15T17:48:21;4.83;99.99
69335;SHT31;56477;52.742;15.242;2022-11-15T17:51:01;4.89;99.99
69335;SHT31;56477;52.742;15.242;2022-11-15T17:53:34;4.90;99.99
69335;SHT31;56477;52.742;15.242;2022-11-15T17:56:12;4.93;99.99
69335;SHT31;56477;52.742;15.242;2022-11-15T17:58:39;4.93;99.99
69335;SHT31;56477;52.742;15.242;2022-11-15T18:01:06;4.94;99.99